Time;durP1;ratioP1;P1;durP2;ratioP2;P2;SDS_P1;SDS_P2;PMS_P1;PMS_P2;Temp;Humidity;BMP_temperature;BMP_pressure;BME280_temperature;BME280_humidity;BME280_pressure;Samples;Min_cycle;Max_cycle;Signal;HPM_P1;HPM_P2
2023/06/28 00:01:41;;;;;;;6.88;3.63;;;17.50;99.90;;;;;;5052832;28;20190;-62
2023/06/28 00:04:07;;;;;;;7.13;3.53;;;17.50;99.90;;;;;;5052708;28;20185;-63
2023/06/28 00:06:32;;;;;;;6.18;3.55;;;17.60;99.90;;;;;;5052998;28;20212;-62
2023/06/28 00:08:58;;;;;;;6.93;3.42;;;17.40;99.90;;;;;;5052972;28;20289;-63
2023/06/28 00:11:25;;;;;;;7.10;3.95;;;17.30;99.90;;;;;;5053010;28;20176;-63
2023/06/28 00:13:53;;;;;;;8.07;3.70;;;17.10;99.90;;;;;;5052880;28;20366;-63
2023/06/28 00:16:18;;;;;;;6.55;3.85;;;17.00;99.90;;;;;;5052708;28;20175;-62
2023/06/28 00:18:45;;;;;;;6.72;3.85;;;17.10;99.90;;;;;;5053048;28;20223;-62
2023/06/28 00:21:13;;;;;;;7.18;3.80;;;17.30;99.90;;;;;;5052894;28;20256;-62
2023/06/28 00:23:39;;;;;;;8.63;3.80;;;17.30;99.90;;;;;;5052788;28;20187;-62
2023/06/28 00:26:05;;;;;;;8.18;4.00;;;17.30;99.90;;;;;;5052764;28;20207;-62
2023/06/28 00:28:30;;;;;;;7.43;3.90;;;17.30;99.90;;;;;;5052698;28;20183;-62
2023/06/28 00:30:56;;;;;;;7.32;3.88;;;17.30;99.90;;;;;;5052610;28;20536;-62
2023/06/28 00:33:22;;;;;;;7.13;4.07;;;17.30;99.90;;;;;;5052554;28;20171;-62
2023/06/28 00:35:48;;;;;;;7.18;3.80;;;17.10;99.90;;;;;;5052536;28;20179;-62
2023/06/28 00:38:14;;;;;;;7.45;3.78;;;17.10;99.90;;;;;;5052649;28;20183;-63
2023/06/28 00:40:40;;;;;;;6.35;4.03;;;17.20;99.90;;;;;;5052665;28;20514;-62
2023/06/28 00:43:05;;;;;;;6.88;4.10;;;17.20;99.90;;;;;;5052626;28;20175;-62
2023/06/28 00:45:31;;;;;;;7.00;4.03;;;17.30;99.90;;;;;;5053924;28;20249;-62
2023/06/28 00:47:57;;;;;;;6.65;3.65;;;17.40;99.90;;;;;;5056247;28;20171;-62
2023/06/28 00:50:24;;;;;;;6.43;4.07;;;17.30;99.90;;;;;;5056279;28;20171;-62
2023/06/28 00:52:50;;;;;;;5.50;4.22;;;17.20;99.90;;;;;;5038235;28;20274;-62
2023/06/28 00:55:16;;;;;;;5.82;3.80;;;17.20;99.90;;;;;;5056160;28;20175;-62
2023/06/28 00:57:42;;;;;;;5.65;4.00;;;17.30;99.90;;;;;;5055972;28;20189;-62
2023/06/28 01:00:12;;;;;;;5.93;4.13;;;17.20;99.90;;;;;;5055984;28;20183;-62
2023/06/28 01:02:41;;;;;;;6.47;3.92;;;17.30;99.90;;;;;;5056030;28;20640;-62
2023/06/28 01:05:11;;;;;;;6.95;4.18;;;17.30;99.90;;;;;;5055927;28;20211;-63
2023/06/28 01:07:38;;;;;;;8.25;4.20;;;17.20;99.90;;;;;;5055974;28;20183;-62
2023/06/28 01:10:04;;;;;;;7.70;4.20;;;17.30;99.90;;;;;;5055966;28;20180;-62
2023/06/28 01:12:30;;;;;;;5.70;4.10;;;17.30;99.90;;;;;;5056254;28;20167;-63
2023/06/28 01:14:56;;;;;;;7.07;3.88;;;17.30;99.90;;;;;;5055614;28;20254;-63
2023/06/28 01:17:22;;;;;;;8.35;4.40;;;17.30;99.90;;;;;;5055598;28;20353;-62
2023/06/28 01:19:48;;;;;;;5.95;4.28;;;17.30;99.90;;;;;;5038085;28;20172;-62
2023/06/28 01:22:14;;;;;;;6.13;4.25;;;17.30;99.90;;;;;;5055915;28;20634;-63
2023/06/28 01:24:41;;;;;;;5.68;3.92;;;17.20;99.90;;;;;;5055562;28;20342;-62
2023/06/28 01:27:11;;;;;;;7.80;4.20;;;17.20;99.90;;;;;;5055510;28;20182;-62
2023/06/28 01:29:38;;;;;;;7.07;4.30;;;17.20;99.90;;;;;;5055381;28;20260;-62
2023/06/28 01:32:07;;;;;;;7.95;3.92;;;17.20;99.90;;;;;;5055514;28;20186;-63
2023/06/28 01:34:32;;;;;;;7.60;4.57;;;17.20;99.90;;;;;;5055231;28;20656;-62
2023/06/28 01:37:01;;;;;;;7.10;4.25;;;17.10;99.90;;;;;;5055441;28;20237;-62
2023/06/28 01:39:29;;;;;;;9.32;4.68;;;17.10;99.90;;;;;;5055186;28;20203;-63
2023/06/28 01:41:56;;;;;;;7.43;4.88;;;17.10;99.90;;;;;;5055144;28;20179;-62
2023/06/28 01:44:22;;;;;;;8.68;4.28;;;17.10;99.90;;;;;;5055194;28;20180;-62
2023/06/28 01:46:49;;;;;;;7.25;4.20;;;17.10;99.90;;;;;;5055157;28;20672;-62
2023/06/28 01:49:15;;;;;;;8.10;4.43;;;17.20;99.90;;;;;;5055173;28;20176;-62
2023/06/28 01:51:41;;;;;;;8.10;4.43;;;17.20;99.90;;;;;;5055038;28;20186;-62
2023/06/28 01:54:07;;;;;;;5.85;4.50;;;17.20;99.90;;;;;;5055138;28;20229;-62
2023/06/28 01:56:33;;;;;;;6.22;4.15;;;17.20;99.90;;;;;;5054446;28;20183;-62
2023/06/28 01:58:58;;;;;;;6.47;4.03;;;17.10;99.90;;;;;;5055040;28;20179;-62
2023/06/28 02:01:24;;;;;;;7.43;4.57;;;17.10;99.90;;;;;;5055190;28;20330;-62
2023/06/28 02:03:49;;;;;;;6.57;4.20;;;17.10;99.90;;;;;;5054933;28;20703;-62
2023/06/28 02:06:15;;;;;;;5.40;4.07;;;17.10;99.90;;;;;;5054726;28;20706;-62
2023/06/28 02:08:41;;;;;;;7.80;4.10;;;17.00;99.90;;;;;;5054848;28;20210;-62
2023/06/28 02:11:07;;;;;;;6.43;4.43;;;17.00;99.90;;;;;;5054481;28;20167;-62
2023/06/28 02:13:32;;;;;;;5.68;4.20;;;17.00;99.90;;;;;;5054998;28;20278;-62
2023/06/28 02:15:58;;;;;;;6.32;3.95;;;16.90;99.90;;;;;;5054747;28;20179;-62
2023/06/28 02:18:26;;;;;;;5.25;3.50;;;16.90;99.90;;;;;;5054619;28;20553;-61
2023/06/28 02:20:52;;;;;;;5.22;3.70;;;16.90;99.90;;;;;;5054505;28;20186;-62
2023/06/28 02:23:19;;;;;;;6.30;4.10;;;16.90;99.90;;;;;;5054396;28;20171;-62
2023/06/28 02:25:44;;;;;;;6.70;4.20;;;16.90;99.90;;;;;;5054091;28;20559;-62
2023/06/28 02:28:10;;;;;;;8.02;3.92;;;16.80;99.90;;;;;;5054444;28;20172;-63
2023/06/28 02:30:36;;;;;;;6.55;3.95;;;16.80;99.90;;;;;;5054634;28;20639;-62
2023/06/28 02:33:01;;;;;;;7.55;4.03;;;16.90;99.90;;;;;;5054556;28;20176;-63
2023/06/28 02:35:27;;;;;;;10.40;4.10;;;16.90;99.90;;;;;;5054164;28;20633;-62
2023/06/28 02:37:53;;;;;;;6.10;3.65;;;17.00;99.90;;;;;;5054369;28;20588;-62
2023/06/28 02:40:19;;;;;;;6.75;3.50;;;17.00;99.90;;;;;;5054010;28;20216;-62
2023/06/28 02:42:45;;;;;;;5.50;3.75;;;16.90;99.90;;;;;;5054253;28;20166;-62
2023/06/28 02:45:11;;;;;;;7.82;3.97;;;16.90;99.90;;;;;;5054023;28;20618;-62
2023/06/28 02:47:37;;;;;;;7.43;3.72;;;16.90;99.90;;;;;;5054063;28;20179;-62
2023/06/28 02:50:05;;;;;;;5.32;3.53;;;16.90;99.90;;;;;;5053810;28;20258;-62
2023/06/28 02:52:32;;;;;;;6.45;3.78;;;16.90;99.90;;;;;;5053876;28;20190;-61
2023/06/28 02:54:57;;;;;;;8.35;4.13;;;16.80;99.90;;;;;;5053693;28;20198;-61
2023/06/28 02:57:24;;;;;;;7.72;3.78;;;16.80;99.90;;;;;;5053904;28;20233;-62
2023/06/28 02:59:50;;;;;;;8.27;3.90;;;16.80;99.90;;;;;;5053816;28;20629;-62
2023/06/28 03:02:15;;;;;;;5.72;4.00;;;16.90;99.90;;;;;;5053794;28;20254;-62
2023/06/28 03:04:41;;;;;;;6.30;3.70;;;16.90;99.90;;;;;;5053588;28;20325;-61
2023/06/28 03:07:13;;;;;;;9.35;3.92;;;16.90;99.90;;;;;;5053641;28;20179;-62
2023/06/28 03:09:39;;;;;;;6.30;3.72;;;16.90;99.90;;;;;;5052622;28;20584;-62
2023/06/28 03:12:05;;;;;;;6.68;3.53;;;16.80;99.90;;;;;;5053746;28;20206;-62
2023/06/28 03:14:31;;;;;;;8.00;4.03;;;16.90;99.90;;;;;;5053664;28;20172;-62
2023/06/28 03:16:57;;;;;;;5.20;3.80;;;16.90;99.90;;;;;;5053188;28;20583;-62
2023/06/28 03:19:22;;;;;;;6.95;3.80;;;16.90;99.90;;;;;;5053586;28;20167;-62
2023/06/28 03:21:48;;;;;;;7.22;3.72;;;16.80;99.90;;;;;;5053415;28;20183;-62
2023/06/28 03:24:13;;;;;;;5.43;3.70;;;16.90;99.90;;;;;;5053253;28;20175;-61
2023/06/28 03:26:39;;;;;;;7.20;4.00;;;16.90;99.90;;;;;;5053371;28;20679;-62
2023/06/28 03:29:05;;;;;;;6.68;3.70;;;17.00;99.90;;;;;;5053467;28;20199;-62
2023/06/28 03:31:31;;;;;;;8.85;4.00;;;16.90;99.90;;;;;;5053296;28;20217;-61
2023/06/28 03:33:57;;;;;;;8.23;4.25;;;16.90;99.90;;;;;;5053303;28;20178;-62
2023/06/28 03:36:24;;;;;;;5.82;3.53;;;16.90;99.90;;;;;;5053316;28;20175;-62
2023/06/28 03:38:50;;;;;;;6.75;3.55;;;16.90;99.90;;;;;;5053145;28;20624;-62
2023/06/28 03:41:15;;;;;;;4.70;3.10;;;16.90;99.90;;;;;;5053381;28;20175;-62
2023/06/28 03:43:41;;;;;;;6.38;3.40;;;16.80;99.90;;;;;;5053253;28;20171;-61
2023/06/28 03:46:07;;;;;;;6.13;3.20;;;16.80;99.90;;;;;;5053011;28;20214;-62
2023/06/28 03:48:32;;;;;;;4.35;2.95;;;16.90;99.90;;;;;;5053183;28;20171;-62
2023/06/28 03:50:58;;;;;;;5.05;3.28;;;16.90;99.90;;;;;;5053099;28;20179;-62
2023/06/28 03:53:24;;;;;;;3.63;3.08;;;16.90;99.90;;;;;;5035159;28;20229;-62
2023/06/28 03:55:49;;;;;;;5.65;3.17;;;17.00;99.90;;;;;;5053161;28;20182;-62
2023/06/28 03:58:15;;;;;;;7.45;3.50;;;17.00;99.90;;;;;;5053073;28;20224;-62
2023/06/28 04:00:41;;;;;;;5.80;3.20;;;16.90;99.90;;;;;;5052945;28;20171;-62
2023/06/28 04:03:07;;;;;;;5.28;3.00;;;16.90;99.90;;;;;;5052983;28;20183;-62
2023/06/28 04:05:33;;;;;;;6.80;3.28;;;16.90;99.90;;;;;;5052877;28;20203;-62
2023/06/28 04:07:59;;;;;;;7.25;3.22;;;16.90;99.90;;;;;;5052726;28;20179;-62
2023/06/28 04:10:25;;;;;;;5.55;2.95;;;16.90;99.90;;;;;;5053008;28;20182;-61
2023/06/28 04:12:51;;;;;;;7.47;3.15;;;16.90;99.90;;;;;;5052974;28;20198;-62
2023/06/28 04:15:17;;;;;;;8.32;3.53;;;16.90;99.90;;;;;;5052926;28;20187;-62
2023/06/28 04:17:42;;;;;;;5.53;3.10;;;16.90;99.90;;;;;;5046975;28;20228;-62
2023/06/28 04:20:08;;;;;;;8.13;3.25;;;16.90;99.90;;;;;;5053565;28;20172;-61
2023/06/28 04:22:34;;;;;;;5.32;2.85;;;17.00;99.90;;;;;;5056547;28;20171;-61
2023/06/28 04:25:00;;;;;;;4.65;3.13;;;17.00;99.90;;;;;;5056028;28;20299;-62
2023/06/28 04:27:26;;;;;;;5.32;3.05;;;17.00;99.90;;;;;;5056676;28;20257;-62
2023/06/28 04:29:52;;;;;;;7.40;3.38;;;17.00;99.90;;;;;;5056672;28;20186;-61
2023/06/28 04:32:35;;;;;;;6.82;3.13;;;16.90;99.90;;;;;;5056468;28;20229;-62
2023/06/28 04:35:01;;;;;;;5.45;3.10;;;16.90;99.90;;;;;;5056408;28;20198;-61
2023/06/28 04:37:27;;;;;;;5.47;3.03;;;16.90;99.90;;;;;;5056514;28;20175;-62
2023/06/28 04:40:00;;;;;;;5.78;3.13;;;16.90;99.90;;;;;;5056262;28;20663;-62
2023/06/28 04:42:25;;;;;;;6.50;3.00;;;16.90;99.90;;;;;;5056252;28;20195;-62
2023/06/28 04:44:51;;;;;;;4.82;3.20;;;17.00;99.90;;;;;;5056182;28;20709;-62
2023/06/28 04:47:17;;;;;;;5.45;2.83;;;17.00;99.90;;;;;;5056229;28;20177;-62
2023/06/28 04:49:47;;;;;;;5.82;3.28;;;17.00;99.90;;;;;;5055901;28;20199;-62
2023/06/28 04:52:13;;;;;;;7.88;3.80;;;17.00;99.90;;;;;;5056276;28;20171;-61
2023/06/28 04:54:40;;;;;;;5.90;3.10;;;17.00;99.90;;;;;;5056225;28;20663;-61
2023/06/28 04:57:06;;;;;;;7.88;3.83;;;17.00;99.90;;;;;;5056051;28;20187;-61
2023/06/28 04:59:31;;;;;;;7.70;3.10;;;17.00;99.90;;;;;;5056129;28;20175;-61
2023/06/28 05:01:58;;;;;;;6.57;3.42;;;17.10;99.90;;;;;;5055712;28;20175;-65
2023/06/28 05:04:24;;;;;;;7.65;3.17;;;17.10;99.90;;;;;;5055627;28;20662;-62
2023/06/28 05:06:51;;;;;;;8.00;3.65;;;17.00;99.90;;;;;;5056071;28;20187;-62
2023/06/28 05:09:17;;;;;;;5.63;3.00;;;17.10;99.90;;;;;;5055905;28;20201;-62
2023/06/28 05:11:43;;;;;;;5.55;2.85;;;17.10;99.90;;;;;;5055866;28;20198;-62
2023/06/28 05:14:09;;;;;;;8.23;3.75;;;17.00;99.90;;;;;;5055661;28;20179;-62
2023/06/28 05:16:34;;;;;;;7.68;3.58;;;17.10;99.90;;;;;;5055685;28;20272;-62
2023/06/28 05:19:00;;;;;;;5.18;3.58;;;17.10;99.90;;;;;;5055378;28;20227;-62
2023/06/28 05:21:25;;;;;;;7.82;3.30;;;17.10;99.90;;;;;;5056039;28;20250;-62
2023/06/28 05:23:51;;;;;;;4.68;3.20;;;17.30;99.90;;;;;;5055673;28;20266;-62
2023/06/28 05:26:17;;;;;;;7.80;3.38;;;17.20;99.90;;;;;;5055491;28;20214;-62
2023/06/28 05:28:42;;;;;;;7.25;4.07;;;17.30;99.90;;;;;;5055371;28;20688;-62
2023/06/28 05:31:08;;;;;;;7.45;3.70;;;17.30;99.90;;;;;;5055015;28;20214;-62
2023/06/28 05:33:33;;;;;;;7.80;3.83;;;17.30;99.90;;;;;;5054775;28;20199;-62
2023/06/28 05:35:59;;;;;;;8.50;3.78;;;17.40;99.90;;;;;;5055461;28;20270;-62
2023/06/28 05:38:25;;;;;;;9.30;4.05;;;17.40;99.90;;;;;;5055492;28;20706;-62
2023/06/28 05:40:55;;;;;;;7.80;3.65;;;17.40;99.90;;;;;;5055290;28;20211;-62
2023/06/28 05:43:22;;;;;;;7.30;3.60;;;17.50;99.90;;;;;;5055213;28;20175;-62
2023/06/28 05:45:49;;;;;;;7.53;3.55;;;17.40;99.90;;;;;;5055153;28;20227;-62
2023/06/28 05:48:15;;;;;;;8.80;3.40;;;17.40;99.90;;;;;;5054942;28;20203;-62
2023/06/28 05:50:42;;;;;;;4.43;3.28;;;17.50;99.90;;;;;;5055180;28;20218;-62
2023/06/28 05:53:08;;;;;;;6.22;3.92;;;17.60;99.90;;;;;;5055033;28;20179;-62
2023/06/28 05:55:34;;;;;;;9.00;3.47;;;17.60;99.90;;;;;;5055018;28;20186;-62
2023/06/28 05:57:59;;;;;;;6.22;3.33;;;17.60;99.90;;;;;;5054873;28;20524;-62
2023/06/28 06:00:25;;;;;;;7.03;4.13;;;17.50;99.90;;;;;;5054844;28;20171;-62
2023/06/28 06:02:51;;;;;;;7.15;3.83;;;17.60;99.90;;;;;;5054698;28;20186;-62
2023/06/28 06:05:16;;;;;;;8.80;3.92;;;17.60;99.90;;;;;;5054869;28;20687;-62
2023/06/28 06:07:45;;;;;;;10.88;4.35;;;17.60;99.90;;;;;;5054840;28;20175;-62
2023/06/28 06:10:14;;;;;;;8.82;4.20;;;17.50;99.90;;;;;;5054780;28;20180;-62
2023/06/28 06:12:39;;;;;;;8.50;4.30;;;17.60;99.90;;;;;;5054677;28;20167;-62
2023/06/28 06:15:06;;;;;;;6.93;3.72;;;17.60;99.90;;;;;;5036625;28;20183;-62
2023/06/28 06:17:32;;;;;;;8.93;4.05;;;17.70;99.90;;;;;;5054305;28;20573;-62
2023/06/28 06:19:58;;;;;;;8.98;4.65;;;17.60;99.90;;;;;;5054658;28;20172;-63
2023/06/28 06:22:23;;;;;;;6.85;3.80;;;17.60;99.90;;;;;;5054555;28;20176;-63
2023/06/28 06:24:49;;;;;;;9.20;4.25;;;17.60;99.90;;;;;;5054353;28;20680;-62
2023/06/28 06:27:14;;;;;;;7.40;4.00;;;17.60;99.90;;;;;;5036479;28;20203;-62
2023/06/28 06:29:40;;;;;;;11.60;4.40;;;17.70;99.90;;;;;;5054271;28;20182;-62
2023/06/28 06:32:06;;;;;;;8.07;4.20;;;17.60;99.90;;;;;;5054062;28;20312;-63
2023/06/28 06:34:32;;;;;;;7.45;4.50;;;17.60;99.90;;;;;;5054255;28;20233;-62
2023/06/28 06:36:58;;;;;;;7.88;4.57;;;17.60;99.90;;;;;;5054274;28;20172;-62
2023/06/28 06:39:23;;;;;;;8.90;4.53;;;17.60;99.90;;;;;;5054087;28;20575;-62
2023/06/28 06:41:49;;;;;;;8.18;4.60;;;17.60;99.90;;;;;;5054001;28;20179;-63
2023/06/28 06:44:14;;;;;;;8.23;4.32;;;17.80;99.90;;;;;;5053849;28;20179;-62
2023/06/28 06:46:40;;;;;;;11.10;5.00;;;17.90;99.90;;;;;;5053777;28;20206;-62
2023/06/28 06:49:06;;;;;;;9.27;4.38;;;17.80;99.90;;;;;;5053895;28;20179;-62
2023/06/28 06:51:33;;;;;;;6.30;4.60;;;17.90;99.90;;;;;;5054035;28;20190;-62
2023/06/28 06:53:59;;;;;;;11.00;4.78;;;17.80;99.90;;;;;;5053977;28;20572;-62
2023/06/28 06:56:25;;;;;;;8.18;4.75;;;17.90;99.90;;;;;;5053783;28;20175;-63
2023/06/28 06:58:54;;;;;;;7.07;4.32;;;18.00;99.90;;;;;;5053773;28;20171;-62
2023/06/28 07:01:19;;;;;;;9.23;4.68;;;18.10;99.90;;;;;;5053705;28;20222;-62
2023/06/28 07:03:45;;;;;;;8.80;4.38;;;18.20;99.90;;;;;;5053636;28;20640;-62
2023/06/28 07:06:11;;;;;;;8.18;4.85;;;18.20;99.90;;;;;;5053579;28;20211;-63
2023/06/28 07:08:37;;;;;;;11.63;4.60;;;18.40;99.90;;;;;;5053599;28;20187;-62
2023/06/28 07:11:02;;;;;;;6.55;4.18;;;18.50;99.90;;;;;;5053567;28;20171;-63
2023/06/28 07:13:32;;;;;;;8.65;4.45;;;18.60;99.90;;;;;;5053505;28;20183;-62
2023/06/28 07:15:57;;;;;;;9.88;4.88;;;18.80;99.90;;;;;;5053455;28;20524;-63
2023/06/28 07:18:23;;;;;;;11.90;5.10;;;18.90;99.90;;;;;;5053615;28;20223;-62
2023/06/28 07:20:48;;;;;;;9.48;4.88;;;18.90;99.90;;;;;;5035807;28;20177;-63
2023/06/28 07:23:14;;;;;;;9.95;5.05;;;19.10;99.90;;;;;;5053449;28;20182;-62
2023/06/28 07:25:40;;;;;;;9.70;5.00;;;19.20;99.90;;;;;;5053263;28;20211;-63
2023/06/28 07:28:06;;;;;;;9.55;5.43;;;19.30;99.90;;;;;;5053256;28;20205;-62
2023/06/28 07:30:51;;;;;;;10.50;4.80;;;19.40;99.90;;;;;;5053245;28;20632;-63
2023/06/28 07:33:17;;;;;;;8.20;4.80;;;19.60;99.90;;;;;;5053431;28;20625;-62
2023/06/28 07:35:42;;;;;;;9.90;5.65;;;19.60;99.90;;;;;;5053186;28;20225;-63
2023/06/28 07:38:08;;;;;;;10.63;5.20;;;19.70;99.90;;;;;;5053493;28;20179;-63
2023/06/28 07:40:33;;;;;;;9.70;5.32;;;19.90;99.90;;;;;;5053153;28;20179;-62
2023/06/28 07:43:02;;;;;;;13.07;6.13;;;20.00;99.90;;;;;;5052994;28;20198;-63
2023/06/28 07:45:28;;;;;;;12.38;5.40;;;20.30;99.90;;;;;;5053138;28;20710;-62
2023/06/28 07:47:54;;;;;;;11.98;5.40;;;20.60;99.90;;;;;;5053177;28;20206;-62
2023/06/28 07:50:20;;;;;;;7.85;4.97;;;20.70;99.90;;;;;;5053133;28;20171;-63
2023/06/28 07:52:46;;;;;;;10.60;5.72;;;20.80;99.90;;;;;;5053028;28;20179;-63
2023/06/28 07:55:15;;;;;;;10.77;5.65;;;20.90;99.90;;;;;;5054147;28;20513;-64
2023/06/28 07:57:40;;;;;;;12.73;5.72;;;20.90;99.90;;;;;;5057312;28;20175;-63
2023/06/28 08:00:07;;;;;;;9.70;6.10;;;20.90;99.90;;;;;;5057322;28;20263;-63
2023/06/28 08:02:32;;;;;;;10.48;5.38;;;21.10;99.90;;;;;;5057043;28;20232;-62
2023/06/28 08:04:58;;;;;;;13.20;5.72;;;20.90;99.90;;;;;;5056951;28;20297;-63
2023/06/28 08:07:24;;;;;;;8.35;5.55;;;20.80;99.90;;;;;;5057100;28;20175;-63
2023/06/28 08:09:50;;;;;;;9.95;5.40;;;20.90;99.90;;;;;;5056885;28;20176;-63
2023/06/28 08:12:16;;;;;;;9.13;5.53;;;21.00;99.90;;;;;;5056856;28;20565;-63
2023/06/28 08:14:41;;;;;;;10.05;5.53;;;21.00;99.90;;;;;;5057196;28;20218;-63
2023/06/28 08:17:07;;;;;;;12.98;5.72;;;21.10;99.90;;;;;;5056856;28;20229;-62
2023/06/28 08:19:33;;;;;;;10.25;6.22;;;21.10;99.90;;;;;;5056890;28;20176;-63
2023/06/28 08:21:58;;;;;;;12.10;5.97;;;21.10;99.90;;;;;;5038970;28;20182;-63
2023/06/28 08:24:24;;;;;;;12.82;6.13;;;21.10;99.90;;;;;;5056670;28;20175;-63
2023/06/28 08:26:50;;;;;;;13.27;6.43;;;21.00;99.90;;;;;;5056467;28;20731;-61
2023/06/28 08:29:16;;;;;;;11.90;6.72;;;20.90;99.90;;;;;;5056777;28;20202;-61
2023/06/28 08:31:42;;;;;;;10.27;6.22;;;21.00;99.90;;;;;;5056591;28;20636;-61
2023/06/28 08:34:08;;;;;;;9.85;6.05;;;20.90;99.90;;;;;;5056578;28;20194;-61
2023/06/28 08:36:34;;;;;;;10.05;6.13;;;21.00;99.90;;;;;;5056455;28;20179;-61
2023/06/28 08:38:59;;;;;;;8.50;6.20;;;21.00;99.90;;;;;;5056366;28;20183;-61
2023/06/28 08:41:27;;;;;;;9.43;5.47;;;21.00;99.90;;;;;;5056309;28;20254;-62
2023/06/28 08:43:54;;;;;;;10.70;6.20;;;21.20;99.90;;;;;;5056399;28;20183;-61
2023/06/28 08:46:21;;;;;;;9.32;5.82;;;21.30;99.90;;;;;;5056415;28;20280;-62
2023/06/28 08:48:48;;;;;;;10.50;5.72;;;21.50;99.90;;;;;;5056328;28;20168;-61
2023/06/28 08:51:15;;;;;;;9.25;5.53;;;21.60;99.90;;;;;;5056224;28;20175;-62
2023/06/28 08:53:44;;;;;;;8.30;6.07;;;21.80;99.90;;;;;;5056019;28;20578;-62
2023/06/28 08:56:10;;;;;;;13.98;6.75;;;21.60;99.90;;;;;;5056463;28;20694;-62
2023/06/28 08:58:37;;;;;;;8.55;6.13;;;21.60;99.90;;;;;;5038360;28;20171;-62
2023/06/28 09:01:03;;;;;;;10.27;6.22;;;21.70;99.90;;;;;;5056150;28;20172;-62
2023/06/28 09:03:30;;;;;;;9.77;6.30;;;21.70;99.90;;;;;;5055930;28;20262;-62
2023/06/28 09:05:56;;;;;;;11.98;6.05;;;21.70;99.90;;;;;;5055427;28;20234;-62
2023/06/28 09:08:22;;;;;;;14.63;6.45;;;21.80;99.90;;;;;;5055006;28;20258;-61
2023/06/28 09:10:48;;;;;;;11.18;5.65;;;22.00;99.90;;;;;;5055736;28;20210;-62
2023/06/28 09:13:19;;;;;;;11.38;6.47;;;22.40;99.90;;;;;;5055872;28;20571;-62
2023/06/28 09:15:48;;;;;;;11.35;6.10;;;22.60;99.90;;;;;;5056044;28;20179;-62
2023/06/28 09:18:15;;;;;;;13.93;6.60;;;23.00;99.90;;;;;;5055412;28;20227;-62
2023/06/28 09:20:49;;;;;;;12.35;6.50;;;23.20;99.90;;;;;;5055607;28;20190;-62
2023/06/28 09:23:26;;;;;;;10.02;5.88;;;23.10;99.90;;;;;;5056030;28;20186;-64
2023/06/28 09:25:52;;;;;;;10.05;5.72;;;22.90;99.90;;;;;;5055650;28;20587;-62
2023/06/28 09:28:19;;;;;;;9.48;5.30;;;22.70;99.90;;;;;;5055481;28;20179;-62
2023/06/28 09:30:51;;;;;;;11.35;6.40;;;22.90;99.90;;;;;;5055813;28;20230;-62
2023/06/28 09:33:18;;;;;;;10.18;5.78;;;23.00;99.90;;;;;;5055308;28;20625;-62
2023/06/28 09:35:46;;;;;;;12.07;6.60;;;23.20;99.90;;;;;;5055217;28;20258;-62
2023/06/28 09:38:12;;;;;;;12.43;6.03;;;23.50;99.90;;;;;;5055418;28;20236;-62
2023/06/28 09:40:38;;;;;;;10.45;5.78;;;23.40;99.90;;;;;;5055318;28;20270;-61
2023/06/28 09:43:04;;;;;;;12.40;6.13;;;23.40;99.90;;;;;;5055273;28;20179;-61
2023/06/28 09:45:32;;;;;;;10.50;6.75;;;23.60;99.90;;;;;;5055183;28;20202;-62
2023/06/28 09:48:03;;;;;;;8.02;6.00;;;23.70;99.90;;;;;;5055032;28;20178;-62
2023/06/28 09:50:37;;;;;;;8.90;5.80;;;23.90;99.90;;;;;;5055268;28;20205;-62
2023/06/28 09:53:17;;;;;;;9.85;5.90;;;24.00;99.90;;;;;;5055080;28;20254;-62
2023/06/28 09:55:49;;;;;;;14.75;6.47;;;24.00;99.90;;;;;;5055241;28;20659;-62
2023/06/28 09:58:20;;;;;;;11.70;6.90;;;24.10;99.90;;;;;;5054901;28;20233;-62
2023/06/28 10:00:47;;;;;;;13.55;6.10;;;24.10;99.90;;;;;;5054924;28;20171;-62
2023/06/28 10:03:15;;;;;;;12.82;6.68;;;23.80;99.90;;;;;;5055045;28;20167;-62
2023/06/28 10:05:42;;;;;;;9.30;6.38;;;23.40;99.90;;;;;;5054911;28;20210;-62
2023/06/28 10:08:16;;;;;;;10.60;6.18;;;23.40;99.90;;;;;;5054871;28;20175;-62
2023/06/28 10:10:43;;;;;;;10.40;6.45;;;23.40;99.90;;;;;;5054694;28;20175;-62
2023/06/28 10:13:18;;;;;;;10.15;6.35;;;23.30;99.90;;;;;;5054531;28;20175;-62
2023/06/28 10:15:55;;;;;;;12.60;6.07;;;23.20;99.90;;;;;;5054986;28;20175;-62
2023/06/28 10:18:22;;;;;;;11.50;6.53;;;23.10;99.90;;;;;;5054098;28;20229;-62
2023/06/28 10:20:48;;;;;;;10.50;6.65;;;23.10;99.90;;;;;;5054568;28;20254;-62
2023/06/28 10:23:15;;;;;;;10.52;6.55;;;23.10;99.90;;;;;;5054370;28;20210;-62
2023/06/28 10:25:44;;;;;;;14.00;7.82;;;23.20;99.90;;;;;;5054213;28;20265;-62
2023/06/28 10:28:13;;;;;;;12.30;7.22;;;23.50;99.90;;;;;;5054801;28;20309;-62
2023/06/28 10:30:42;;;;;;;8.77;6.13;;;23.80;99.90;;;;;;5036757;28;20183;-62
2023/06/28 10:33:14;;;;;;;9.52;6.80;;;24.00;99.90;;;;;;5054554;28;20574;-62
2023/06/28 10:35:42;;;;;;;10.65;6.70;;;23.90;99.90;;;;;;5054382;28;20171;-62
2023/06/28 10:38:08;;;;;;;13.60;6.93;;;23.90;99.90;;;;;;5054175;28;20524;-62
2023/06/28 10:40:34;;;;;;;8.82;6.68;;;24.00;99.90;;;;;;5054382;28;20274;-63
2023/06/28 10:43:00;;;;;;;13.35;7.20;;;24.10;99.90;;;;;;5054229;28;20666;-63
2023/06/28 10:45:36;;;;;;;11.57;7.20;;;24.00;99.90;;;;;;5054295;28;20203;-62
2023/06/28 10:48:03;;;;;;;10.73;7.43;;;23.80;99.90;;;;;;5054187;28;20252;-62
2023/06/28 10:50:29;;;;;;;12.93;6.85;;;24.00;99.90;;;;;;5053932;28;20171;-62
2023/06/28 10:52:56;;;;;;;9.38;6.95;;;24.20;99.90;;;;;;5035951;28;20552;-62
2023/06/28 10:55:30;;;;;;;10.30;7.10;;;24.20;99.90;;;;;;5054019;28;20186;-63
2023/06/28 10:58:10;;;;;;;12.20;7.05;;;24.20;99.90;;;;;;5053886;28;20171;-63
2023/06/28 11:00:44;;;;;;;9.93;6.38;;;24.10;99.90;;;;;;5053729;28;20182;-63
2023/06/28 11:03:10;;;;;;;11.90;6.95;;;24.10;99.90;;;;;;5053608;28;20174;-63
2023/06/28 11:05:45;;;;;;;13.60;7.68;;;24.20;99.90;;;;;;5053634;28;20199;-63
2023/06/28 11:08:13;;;;;;;12.90;7.82;;;24.00;99.90;;;;;;5053664;28;20624;-63
2023/06/28 11:10:47;;;;;;;12.77;7.47;;;23.90;99.90;;;;;;5053974;28;20202;-63
2023/06/28 11:13:29;;;;;;;11.48;6.85;;;23.90;99.90;;;;;;5053623;28;20206;-62
2023/06/28 11:16:16;;;;;;;10.90;7.30;;;24.00;99.90;;;;;;5054033;28;20175;-62
2023/06/28 11:18:42;;;;;;;12.20;6.88;;;24.10;99.90;;;;;;5053617;28;20215;-63
2023/06/28 11:21:14;;;;;;;12.65;7.45;;;24.10;99.90;;;;;;5053467;28;20178;-62
2023/06/28 11:23:41;;;;;;;11.73;8.25;;;24.30;99.90;;;;;;5053463;28;20181;-62
2023/06/28 11:26:12;;;;;;;10.13;7.47;;;24.60;99.90;;;;;;5053216;28;20202;-62
2023/06/28 11:28:50;;;;;;;10.18;7.30;;;24.90;99.90;;;;;;5053433;28;20270;-62
2023/06/28 11:31:25;;;;;;;11.73;6.70;;;24.90;99.90;;;;;;5052895;28;20255;-63
2023/06/28 11:33:54;;;;;;;11.60;7.82;;;24.80;99.90;;;;;;5053594;28;20282;-62
2023/06/28 11:36:23;;;;;;;11.90;7.68;;;24.60;99.90;;;;;;5053210;28;20182;-62
2023/06/28 11:38:49;;;;;;;10.25;7.07;;;24.70;99.90;;;;;;5053186;28;20178;-62
2023/06/28 11:41:16;;;;;;;9.68;6.78;;;24.90;99.90;;;;;;5053378;28;20258;-62
2023/06/28 11:43:45;;;;;;;11.35;6.65;;;24.70;99.90;;;;;;5053240;28;20552;-63
2023/06/28 11:46:22;;;;;;;11.57;6.97;;;24.70;99.90;;;;;;5053212;28;20560;-62
2023/06/28 11:48:49;;;;;;;11.88;6.55;;;24.50;99.90;;;;;;5053168;28;20265;-62
2023/06/28 11:51:16;;;;;;;12.80;7.72;;;24.50;99.90;;;;;;5053035;28;20220;-62
2023/06/28 11:53:49;;;;;;;11.85;7.53;;;24.80;99.90;;;;;;5053182;28;20367;-62
2023/06/28 11:56:14;;;;;;;13.10;7.78;;;24.90;99.90;;;;;;5053135;28;20273;-62
2023/06/28 11:58:40;;;;;;;11.02;7.13;;;25.10;99.90;;;;;;5053008;28;20194;-62
2023/06/28 12:01:18;;;;;;;13.57;7.10;;;25.20;99.90;;;;;;5053015;28;20266;-62
2023/06/28 12:03:43;;;;;;;12.40;7.40;;;25.00;99.90;;;;;;5052936;28;20186;-62
2023/06/28 12:06:10;;;;;;;11.13;7.68;;;25.00;99.90;;;;;;5053036;28;20211;-62
2023/06/28 12:08:38;;;;;;;10.50;7.38;;;25.20;99.90;;;;;;5053000;28;20175;-63
2023/06/28 12:11:15;;;;;;;11.48;7.90;;;25.30;99.90;;;;;;5053248;28;20252;-62
2023/06/28 12:13:41;;;;;;;11.48;7.40;;;25.40;99.90;;;;;;5052906;28;20175;-62
2023/06/28 12:16:14;;;;;;;12.15;6.30;;;25.40;99.90;;;;;;5052714;28;20266;-62
2023/06/28 12:19:00;;;;;;;9.43;5.63;;;25.50;99.90;;;;;;5052653;28;20223;-62
2023/06/28 12:21:30;;;;;;;10.02;5.60;;;25.50;99.90;;;;;;5052850;28;20197;-62
2023/06/28 12:24:24;;;;;;;10.80;6.95;;;25.60;99.90;;;;;;5052867;28;20179;-62
2023/06/28 12:26:56;;;;;;;7.22;5.90;;;25.70;99.90;;;;;;5052488;28;20214;-62
2023/06/28 12:29:24;;;;;;;6.60;5.43;;;25.80;99.90;;;;;;5052861;28;20171;-63
2023/06/28 12:31:56;;;;;;;9.98;5.90;;;25.70;99.90;;;;;;5052772;28;20606;-63
2023/06/28 12:34:27;;;;;;;9.38;5.95;;;25.80;99.90;;;;;;5052751;28;20179;-63
2023/06/28 12:36:57;;;;;;;8.40;6.63;;;25.80;99.90;;;;;;5052505;28;20171;-62
2023/06/28 12:39:25;;;;;;;10.40;6.18;;;25.70;99.90;;;;;;5052753;28;20194;-62
2023/06/28 12:42:17;;;;;;;10.73;7.20;;;25.90;99.90;;;;;;5054632;28;20731;-62
2023/06/28 12:45:21;;;;;;;11.18;7.15;;;25.80;99.90;;;;;;5056160;28;20543;-62